sensor_id;sensor_type;location;lat;lon;timestamp;pressure;altitude;pressure_sealevel;temperature;humidity
37610;BME280;23457;51.966;8.230;2023-07-28T00:01:34;99757.66;;;18.53;100.00
37610;BME280;23457;51.966;8.230;2023-07-28T00:04:01;99754.16;;;18.53;100.00
37610;BME280;23457;51.966;8.230;2023-07-28T00:06:30;99751.84;;;18.44;100.00
37610;BME280;23457;51.966;8.230;2023-07-28T00:09:01;99750.88;;;18.46;100.00
37610;BME280;23457;51.966;8.230;2023-07-28T00:11:27;99752.59;;;18.47;100.00
37610;BME280;23457;51.966;8.230;2023-07-28T00:13:54;99755.06;;;18.52;100.00
37610;BME280;23457;51.966;8.230;2023-07-28T00:16:20;99751.63;;;18.50;100.00
37610;BME280;23457;51.966;8.230;2023-07-28T00:18:47;99744.66;;;18.49;100.00
37610;BME280;23457;51.966;8.230;2023-07-28T00:21:14;99748.22;;;18.48;100.00
37610;BME280;23457;51.966;8.230;2023-07-28T00:23:40;99748.22;;;18.48;100.00
37610;BME280;23457;51.966;8.230;2023-07-28T00:26:07;99749.25;;;18.42;100.00
37610;BME280;23457;51.966;8.230;2023-07-28T00:28:33;99751.69;;;18.48;100.00
37610;BME280;23457;51.966;8.230;2023-07-28T00:31:00;99751.00;;;18.42;100.00
37610;BME280;23457;51.966;8.230;2023-07-28T00:33:27;99745.38;;;18.54;100.00
37610;BME280;23457;51.966;8.230;2023-07-28T00:35:54;99739.06;;;18.32;100.00
37610;BME280;23457;51.966;8.230;2023-07-28T00:38:20;99747.81;;;18.32;100.00
37610;BME280;23457;51.966;8.230;2023-07-28T00:40:47;99741.97;;;18.50;100.00
37610;BME280;23457;51.966;8.230;2023-07-28T00:43:13;99737.31;;;18.60;100.00
37610;BME280;23457;51.966;8.230;2023-07-28T00:45:40;99739.13;;;18.58;100.00
37610;BME280;23457;51.966;8.230;2023-07-28T00:48:11;99737.03;;;18.40;100.00
37610;BME280;23457;51.966;8.230;2023-07-28T00:50:44;99731.41;;;18.52;100.00
37610;BME280;23457;51.966;8.230;2023-07-28T00:53:12;99733.94;;;18.55;100.00
37610;BME280;23457;51.966;8.230;2023-07-28T00:55:39;99732.50;;;18.45;100.00
37610;BME280;23457;51.966;8.230;2023-07-28T00:58:05;99741.34;;;18.42;100.00
37610;BME280;23457;51.966;8.230;2023-07-28T01:00:34;99745.97;;;18.36;100.00
37610;BME280;23457;51.966;8.230;2023-07-28T01:03:01;99745.03;;;18.37;100.00
37610;BME280;23457;51.966;8.230;2023-07-28T01:06:12;99746.81;;;18.36;100.00
37610;BME280;23457;51.966;8.230;2023-07-28T01:08:56;99748.34;;;18.43;100.00
37610;BME280;23457;51.966;8.230;2023-07-28T01:11:25;99746.47;;;18.47;100.00
37610;BME280;23457;51.966;8.230;2023-07-28T01:13:52;99750.03;;;18.46;100.00
37610;BME280;23457;51.966;8.230;2023-07-28T01:16:19;99752.00;;;18.38;100.00
37610;BME280;23457;51.966;8.230;2023-07-28T01:18:45;99751.09;;;18.39;100.00
37610;BME280;23457;51.966;8.230;2023-07-28T01:21:25;99759.28;;;18.57;100.00
37610;BME280;23457;51.966;8.230;2023-07-28T01:24:15;99748.94;;;18.51;100.00
37610;BME280;23457;51.966;8.230;2023-07-28T01:26:48;99760.53;;;18.46;100.00
37610;BME280;23457;51.966;8.230;2023-07-28T01:29:16;99755.47;;;18.40;100.00
37610;BME280;23457;51.966;8.230;2023-07-28T01:31:48;99756.28;;;18.42;100.00
37610;BME280;23457;51.966;8.230;2023-07-28T01:34:15;99756.81;;;18.53;100.00
37610;BME280;23457;51.966;8.230;2023-07-28T01:36:41;99760.88;;;18.63;100.00
37610;BME280;23457;51.966;8.230;2023-07-28T01:39:08;99757.63;;;18.55;100.00
37610;BME280;23457;51.966;8.230;2023-07-28T01:41:35;99759.47;;;18.51;100.00
37610;BME280;23457;51.966;8.230;2023-07-28T01:44:01;99762.09;;;18.51;100.00
37610;BME280;23457;51.966;8.230;2023-07-28T01:46:29;99762.31;;;18.45;100.00
37610;BME280;23457;51.966;8.230;2023-07-28T01:48:55;99760.84;;;18.65;100.00
37610;BME280;23457;51.966;8.230;2023-07-28T01:51:22;99767.19;;;18.59;100.00
37610;BME280;23457;51.966;8.230;2023-07-28T01:53:48;99764.41;;;18.62;100.00
37610;BME280;23457;51.966;8.230;2023-07-28T01:56:15;99763.13;;;18.47;100.00
37610;BME280;23457;51.966;8.230;2023-07-28T01:58:42;99762.88;;;18.55;100.00
37610;BME280;23457;51.966;8.230;2023-07-28T02:01:09;99756.44;;;18.65;100.00
37610;BME280;23457;51.966;8.230;2023-07-28T02:03:35;99761.78;;;18.62;100.00
37610;BME280;23457;51.966;8.230;2023-07-28T02:06:02;99756.88;;;18.50;100.00
37610;BME280;23457;51.966;8.230;2023-07-28T02:08:29;99759.97;;;18.64;100.00
37610;BME280;23457;51.966;8.230;2023-07-28T02:10:56;99759.28;;;18.57;100.00
37610;BME280;23457;51.966;8.230;2023-07-28T02:13:22;99762.75;;;18.32;100.00
37610;BME280;23457;51.966;8.230;2023-07-28T02:15:49;99761.88;;;18.31;100.00
37610;BME280;23457;51.966;8.230;2023-07-28T02:18:15;99757.19;;;18.41;100.00
37610;BME280;23457;51.966;8.230;2023-07-28T02:20:42;99765.84;;;18.44;100.00
37610;BME280;23457;51.966;8.230;2023-07-28T02:23:09;99762.66;;;18.35;100.00
37610;BME280;23457;51.966;8.230;2023-07-28T02:25:35;99762.03;;;18.25;100.00
37610;BME280;23457;51.966;8.230;2023-07-28T02:28:02;99766.94;;;18.37;100.00
37610;BME280;23457;51.966;8.230;2023-07-28T02:30:29;99764.25;;;18.39;100.00
37610;BME280;23457;51.966;8.230;2023-07-28T02:32:56;99767.63;;;18.44;100.00
37610;BME280;23457;51.966;8.230;2023-07-28T02:35:22;99774.78;;;18.39;100.00
37610;BME280;23457;51.966;8.230;2023-07-28T02:37:49;99769.31;;;18.46;100.00
37610;BME280;23457;51.966;8.230;2023-07-28T02:40:16;99772.44;;;18.59;100.00
37610;BME280;23457;51.966;8.230;2023-07-28T02:42:42;99775.81;;;18.63;100.00
37610;BME280;23457;51.966;8.230;2023-07-28T02:45:09;99770.25;;;18.73;100.00
37610;BME280;23457;51.966;8.230;2023-07-28T02:47:37;99770.13;;;18.48;100.00
37610;BME280;23457;51.966;8.230;2023-07-28T02:50:04;99778.59;;;18.58;100.00
37610;BME280;23457;51.966;8.230;2023-07-28T02:52:34;99782.97;;;18.59;100.00
37610;BME280;23457;51.966;8.230;2023-07-28T02:55:01;99782.97;;;18.59;100.00
37610;BME280;23457;51.966;8.230;2023-07-28T02:57:28;99788.28;;;18.56;100.00
37610;BME280;23457;51.966;8.230;2023-07-28T02:59:54;99780.22;;;18.62;100.00
37610;BME280;23457;51.966;8.230;2023-07-28T03:02:21;99786.69;;;18.50;100.00
37610;BME280;23457;51.966;8.230;2023-07-28T03:04:50;99785.09;;;18.46;100.00
37610;BME280;23457;51.966;8.230;2023-07-28T03:07:22;99784.53;;;18.65;100.00
37610;BME280;23457;51.966;8.230;2023-07-28T03:09:58;99791.78;;;18.58;100.00
37610;BME280;23457;51.966;8.230;2023-07-28T03:12:25;99784.84;;;18.54;100.00
37610;BME280;23457;51.966;8.230;2023-07-28T03:14:52;99791.69;;;18.61;100.00
37610;BME280;23457;51.966;8.230;2023-07-28T03:17:19;99792.69;;;18.55;100.00
37610;BME280;23457;51.966;8.230;2023-07-28T03:19:45;99785.22;;;18.42;100.00
37610;BME280;23457;51.966;8.230;2023-07-28T03:22:12;99785.94;;;18.47;100.00
37610;BME280;23457;51.966;8.230;2023-07-28T03:24:39;99784.44;;;18.38;100.00
37610;BME280;23457;51.966;8.230;2023-07-28T03:27:05;99790.75;;;18.33;100.00
37610;BME280;23457;51.966;8.230;2023-07-28T03:29:32;99795.94;;;18.36;100.00
37610;BME280;23457;51.966;8.230;2023-07-28T03:31:59;99797.47;;;18.43;100.00
37610;BME280;23457;51.966;8.230;2023-07-28T03:34:26;99804.88;;;18.30;100.00
37610;BME280;23457;51.966;8.230;2023-07-28T03:36:57;99800.38;;;18.34;100.00
37610;BME280;23457;51.966;8.230;2023-07-28T03:39:24;99798.25;;;18.46;100.00
37610;BME280;23457;51.966;8.230;2023-07-28T03:41:50;99810.91;;;18.34;100.00
37610;BME280;23457;51.966;8.230;2023-07-28T03:44:17;99797.38;;;18.46;100.00
37610;BME280;23457;51.966;8.230;2023-07-28T03:46:46;99793.72;;;18.50;100.00
37610;BME280;23457;51.966;8.230;2023-07-28T03:49:13;99792.97;;;18.46;100.00
37610;BME280;23457;51.966;8.230;2023-07-28T03:51:40;99794.09;;;18.38;100.00
37610;BME280;23457;51.966;8.230;2023-07-28T03:54:06;99798.13;;;18.49;100.00
37610;BME280;23457;51.966;8.230;2023-07-28T03:56:33;99795.56;;;18.48;100.00
37610;BME280;23457;51.966;8.230;2023-07-28T03:59:00;99793.06;;;18.43;100.00
37610;BME280;23457;51.966;8.230;2023-07-28T04:01:27;99798.06;;;18.51;100.00
37610;BME280;23457;51.966;8.230;2023-07-28T04:03:54;99799.06;;;18.48;100.00
37610;BME280;23457;51.966;8.230;2023-07-28T04:06:39;99799.19;;;18.44;100.00
37610;BME280;23457;51.966;8.230;2023-07-28T04:09:07;99798.19;;;18.48;100.00
37610;BME280;23457;51.966;8.230;2023-07-28T04:11:34;99798.97;;;18.50;100.00
37610;BME280;23457;51.966;8.230;2023-07-28T04:14:01;99809.34;;;18.56;100.00
37610;BME280;23457;51.966;8.230;2023-07-28T04:16:28;99807.84;;;18.47;100.00
37610;BME280;23457;51.966;8.230;2023-07-28T04:18:55;99802.81;;;18.40;100.00
37610;BME280;23457;51.966;8.230;2023-07-28T04:21:22;99799.97;;;18.47;100.00
37610;BME280;23457;51.966;8.230;2023-07-28T04:23:49;99810.53;;;18.46;100.00
37610;BME280;23457;51.966;8.230;2023-07-28T04:26:17;99809.63;;;18.47;100.00
37610;BME280;23457;51.966;8.230;2023-07-28T04:28:48;99811.41;;;18.46;100.00
37610;BME280;23457;51.966;8.230;2023-07-28T04:31:15;99815.72;;;18.49;100.00
37610;BME280;23457;51.966;8.230;2023-07-28T04:33:51;99821.25;;;18.38;100.00
37610;BME280;23457;51.966;8.230;2023-07-28T04:36:18;99826.47;;;18.40;100.00
37610;BME280;23457;51.966;8.230;2023-07-28T04:38:44;99824.44;;;18.49;100.00
37610;BME280;23457;51.966;8.230;2023-07-28T04:41:11;99822.78;;;18.47;100.00
37610;BME280;23457;51.966;8.230;2023-07-28T04:43:52;99826.94;;;18.54;100.00
37610;BME280;23457;51.966;8.230;2023-07-28T04:46:19;99825.50;;;18.44;100.00
37610;BME280;23457;51.966;8.230;2023-07-28T04:48:54;99830.47;;;18.53;100.00
37610;BME280;23457;51.966;8.230;2023-07-28T04:51:46;99827.84;;;18.53;100.00
37610;BME280;23457;51.966;8.230;2023-07-28T04:54:32;99823.41;;;18.55;100.00
37610;BME280;23457;51.966;8.230;2023-07-28T04:56:59;99822.56;;;18.53;100.00
37610;BME280;23457;51.966;8.230;2023-07-28T04:59:31;99823.34;;;18.58;100.00
37610;BME280;23457;51.966;8.230;2023-07-28T05:01:58;99830.47;;;18.53;100.00
37610;BME280;23457;51.966;8.230;2023-07-28T05:04:25;99837.31;;;18.60;100.00
37610;BME280;23457;51.966;8.230;2023-07-28T05:06:52;99833.88;;;18.58;100.00
37610;BME280;23457;51.966;8.230;2023-07-28T05:09:18;99835.47;;;18.62;100.00
37610;BME280;23457;51.966;8.230;2023-07-28T05:11:45;99844.09;;;18.67;100.00
37610;BME280;23457;51.966;8.230;2023-07-28T05:14:14;99839.53;;;18.74;100.00
37610;BME280;23457;51.966;8.230;2023-07-28T05:16:41;99838.28;;;18.85;100.00
37610;BME280;23457;51.966;8.230;2023-07-28T05:19:11;99835.88;;;18.78;100.00
37610;BME280;23457;51.966;8.230;2023-07-28T05:21:56;99841.09;;;18.79;100.00
37610;BME280;23457;51.966;8.230;2023-07-28T05:24:35;99839.31;;;18.80;100.00
37610;BME280;23457;51.966;8.230;2023-07-28T05:27:02;99838.94;;;18.64;100.00
37610;BME280;23457;51.966;8.230;2023-07-28T05:29:29;99845.91;;;18.65;100.00
37610;BME280;23457;51.966;8.230;2023-07-28T05:32:01;99844.44;;;18.84;100.00
37610;BME280;23457;51.966;8.230;2023-07-28T05:34:35;99844.78;;;18.74;100.00
37610;BME280;23457;51.966;8.230;2023-07-28T05:37:02;99842.09;;;18.75;100.00
37610;BME280;23457;51.966;8.230;2023-07-28T05:39:31;99843.13;;;18.71;100.00
37610;BME280;23457;51.966;8.230;2023-07-28T05:41:58;99844.03;;;18.70;100.00
37610;BME280;23457;51.966;8.230;2023-07-28T05:44:25;99847.44;;;18.74;100.00
37610;BME280;23457;51.966;8.230;2023-07-28T05:46:52;99855.69;;;18.89;100.00
37610;BME280;23457;51.966;8.230;2023-07-28T05:49:19;99856.19;;;18.74;100.00
37610;BME280;23457;51.966;8.230;2023-07-28T05:51:46;99862.06;;;18.82;100.00
37610;BME280;23457;51.966;8.230;2023-07-28T05:54:14;99862.03;;;18.84;100.00
37610;BME280;23457;51.966;8.230;2023-07-28T05:56:44;99860.78;;;18.95;100.00
37610;BME280;23457;51.966;8.230;2023-07-28T05:59:10;99863.56;;;18.89;100.00
37610;BME280;23457;51.966;8.230;2023-07-28T06:01:37;99868.56;;;18.99;100.00
37610;BME280;23457;51.966;8.230;2023-07-28T06:04:10;99866.34;;;18.86;100.00
37610;BME280;23457;51.966;8.230;2023-07-28T06:06:42;99869.47;;;18.98;100.00
37610;BME280;23457;51.966;8.230;2023-07-28T06:09:11;99867.84;;;18.93;100.00
37610;BME280;23457;51.966;8.230;2023-07-28T06:11:39;99880.16;;;18.93;100.00
37610;BME280;23457;51.966;8.230;2023-07-28T06:14:06;99879.13;;;18.99;100.00
37610;BME280;23457;51.966;8.230;2023-07-28T06:16:34;99874.84;;;18.94;100.00
37610;BME280;23457;51.966;8.230;2023-07-28T06:19:01;99871.78;;;18.80;100.00
37610;BME280;23457;51.966;8.230;2023-07-28T06:21:28;99884.81;;;18.85;100.00
37610;BME280;23457;51.966;8.230;2023-07-28T06:23:55;99888.81;;;18.96;100.00
37610;BME280;23457;51.966;8.230;2023-07-28T06:26:22;99890.19;;;18.80;100.00
37610;BME280;23457;51.966;8.230;2023-07-28T06:28:49;99898.09;;;18.80;100.00
37610;BME280;23457;51.966;8.230;2023-07-28T06:31:15;99902.59;;;19.05;100.00
37610;BME280;23457;51.966;8.230;2023-07-28T06:33:42;99906.22;;;19.01;100.00
37610;BME280;23457;51.966;8.230;2023-07-28T06:36:09;99908.72;;;18.77;100.00
37610;BME280;23457;51.966;8.230;2023-07-28T06:38:36;99909.38;;;18.85;100.00
37610;BME280;23457;51.966;8.230;2023-07-28T06:41:02;99908.25;;;18.92;100.00
37610;BME280;23457;51.966;8.230;2023-07-28T06:43:29;99909.97;;;18.93;100.00
37610;BME280;23457;51.966;8.230;2023-07-28T06:46:00;99911.31;;;19.07;100.00
37610;BME280;23457;51.966;8.230;2023-07-28T06:48:27;99913.56;;;19.19;100.00
37610;BME280;23457;51.966;8.230;2023-07-28T06:50:53;99918.88;;;19.17;100.00
37610;BME280;23457;51.966;8.230;2023-07-28T06:53:20;99923.75;;;19.02;100.00
37610;BME280;23457;51.966;8.230;2023-07-28T06:55:47;99922.09;;;18.99;100.00
37610;BME280;23457;51.966;8.230;2023-07-28T06:58:14;99919.69;;;19.19;100.00
37610;BME280;23457;51.966;8.230;2023-07-28T07:00:40;99928.41;;;19.21;100.00
37610;BME280;23457;51.966;8.230;2023-07-28T07:03:07;99923.94;;;19.25;100.00
37610;BME280;23457;51.966;8.230;2023-07-28T07:05:34;99926.25;;;19.34;100.00
37610;BME280;23457;51.966;8.230;2023-07-28T07:08:00;99917.13;;;19.44;100.00
37610;BME280;23457;51.966;8.230;2023-07-28T07:10:28;99930.03;;;19.25;100.00
37610;BME280;23457;51.966;8.230;2023-07-28T07:12:54;99930.09;;;19.24;100.00
37610;BME280;23457;51.966;8.230;2023-07-28T07:15:23;99939.66;;;19.54;100.00
37610;BME280;23457;51.966;8.230;2023-07-28T07:17:50;99946.63;;;19.57;100.00
37610;BME280;23457;51.966;8.230;2023-07-28T07:20:16;99941.28;;;19.58;100.00
37610;BME280;23457;51.966;8.230;2023-07-28T07:22:43;99938.06;;;19.50;100.00
37610;BME280;23457;51.966;8.230;2023-07-28T07:25:10;99940.28;;;19.62;100.00
37610;BME280;23457;51.966;8.230;2023-07-28T07:27:36;99940.97;;;19.67;100.00
37610;BME280;23457;51.966;8.230;2023-07-28T07:30:03;99942.63;;;19.96;100.00
37610;BME280;23457;51.966;8.230;2023-07-28T07:32:32;99944.34;;;19.97;100.00
37610;BME280;23457;51.966;8.230;2023-07-28T07:34:59;99943.59;;;19.94;100.00
37610;BME280;23457;51.966;8.230;2023-07-28T07:37:27;99942.84;;;19.90;100.00
37610;BME280;23457;51.966;8.230;2023-07-28T07:39:53;99953.13;;;19.98;100.00
37610;BME280;23457;51.966;8.230;2023-07-28T07:42:21;99947.53;;;20.07;100.00
37610;BME280;23457;51.966;8.230;2023-07-28T07:44:47;99958.31;;;20.01;100.00
37610;BME280;23457;51.966;8.230;2023-07-28T07:47:15;99954.91;;;19.97;100.00
37610;BME280;23457;51.966;8.230;2023-07-28T07:49:42;99962.00;;;20.20;100.00
37610;BME280;23457;51.966;8.230;2023-07-28T07:52:09;99957.97;;;20.36;100.00
37610;BME280;23457;51.966;8.230;2023-07-28T07:54:36;99956.41;;;20.54;100.00
37610;BME280;23457;51.966;8.230;2023-07-28T07:57:04;99957.91;;;20.38;100.00
37610;BME280;23457;51.966;8.230;2023-07-28T07:59:32;99960.72;;;20.57;100.00
37610;BME280;23457;51.966;8.230;2023-07-28T08:02:02;99963.41;;;20.55;100.00
37610;BME280;23457;51.966;8.230;2023-07-28T08:04:30;99972.53;;;20.47;100.00
37610;BME280;23457;51.966;8.230;2023-07-28T08:06:58;99969.03;;;20.46;100.00
37610;BME280;23457;51.966;8.230;2023-07-28T08:09:24;99973.34;;;20.72;100.00
37610;BME280;23457;51.966;8.230;2023-07-28T08:11:51;99968.19;;;20.69;100.00
37610;BME280;23457;51.966;8.230;2023-07-28T08:14:19;99960.50;;;20.63;100.00
37610;BME280;23457;51.966;8.230;2023-07-28T08:16:46;99963.81;;;20.68;100.00
37610;BME280;23457;51.966;8.230;2023-07-28T08:19:13;99966.00;;;20.80;100.00
37610;BME280;23457;51.966;8.230;2023-07-28T08:21:40;99971.88;;;20.88;100.00
37610;BME280;23457;51.966;8.230;2023-07-28T08:24:06;99975.06;;;20.96;100.00
37610;BME280;23457;51.966;8.230;2023-07-28T08:26:34;99977.72;;;21.20;100.00
37610;BME280;23457;51.966;8.230;2023-07-28T08:29:00;99973.25;;;20.98;100.00
37610;BME280;23457;51.966;8.230;2023-07-28T08:31:27;99981.75;;;20.83;100.00
37610;BME280;23457;51.966;8.230;2023-07-28T08:33:54;99983.69;;;20.78;100.00
37610;BME280;23457;51.966;8.230;2023-07-28T08:36:20;99986.22;;;20.81;100.00
37610;BME280;23457;51.966;8.230;2023-07-28T08:38:47;99989.75;;;20.80;100.00
37610;BME280;23457;51.966;8.230;2023-07-28T08:41:15;99987.72;;;20.88;100.00
37610;BME280;23457;51.966;8.230;2023-07-28T08:43:42;99993.22;;;21.05;100.00
37610;BME280;23457;51.966;8.230;2023-07-28T08:46:08;99994.44;;;21.20;100.00
37610;BME280;23457;51.966;8.230;2023-07-28T08:48:35;99997.50;;;21.31;100.00
37610;BME280;23457;51.966;8.230;2023-07-28T08:51:02;99998.63;;;21.26;100.00
37610;BME280;23457;51.966;8.230;2023-07-28T08:53:31;100008.56;;;21.19;100.00
37610;BME280;23457;51.966;8.230;2023-07-28T08:55:58;100008.59;;;20.94;100.00
37610;BME280;23457;51.966;8.230;2023-07-28T08:58:24;100008.38;;;21.00;100.00
37610;BME280;23457;51.966;8.230;2023-07-28T09:00:52;100007.13;;;20.87;100.00
37610;BME280;23457;51.966;8.230;2023-07-28T09:03:20;100014.00;;;20.91;100.00
37610;BME280;23457;51.966;8.230;2023-07-28T09:05:48;100011.59;;;21.08;100.00
37610;BME280;23457;51.966;8.230;2023-07-28T09:08:18;100011.03;;;21.24;100.00
37610;BME280;23457;51.966;8.230;2023-07-28T09:10:46;100017.63;;;21.35;100.00
37610;BME280;23457;51.966;8.230;2023-07-28T09:13:18;100018.53;;;21.11;100.00
37610;BME280;23457;51.966;8.230;2023-07-28T09:15:46;100022.25;;;21.05;100.00
37610;BME280;23457;51.966;8.230;2023-07-28T09:18:16;100033.53;;;20.87;100.00
37610;BME280;23457;51.966;8.230;2023-07-28T09:20:43;100031.91;;;20.83;100.00
37610;BME280;23457;51.966;8.230;2023-07-28T09:23:13;100031.09;;;20.81;100.00
37610;BME280;23457;51.966;8.230;2023-07-28T09:25:39;100038.25;;;20.78;100.00
37610;BME280;23457;51.966;8.230;2023-07-28T09:28:06;100027.84;;;20.98;100.00
37610;BME280;23457;51.966;8.230;2023-07-28T09:30:45;100032.47;;;20.91;100.00
37610;BME280;23457;51.966;8.230;2023-07-28T09:33:13;100037.31;;;21.03;100.00
37610;BME280;23457;51.966;8.230;2023-07-28T09:35:50;100036.72;;;21.42;100.00
37610;BME280;23457;51.966;8.230;2023-07-28T09:38:18;100034.28;;;21.59;100.00
37610;BME280;23457;51.966;8.230;2023-07-28T09:40:45;100039.31;;;21.43;100.00
37610;BME280;23457;51.966;8.230;2023-07-28T09:43:12;100044.47;;;21.25;100.00
37610;BME280;23457;51.966;8.230;2023-07-28T09:45:42;100052.84;;;20.89;100.00
37610;BME280;23457;51.966;8.230;2023-07-28T09:48:09;100049.44;;;20.86;100.00
37610;BME280;23457;51.966;8.230;2023-07-28T09:50:39;100058.44;;;21.03;100.00
37610;BME280;23457;51.966;8.230;2023-07-28T09:53:09;100047.66;;;20.86;100.00
37610;BME280;23457;51.966;8.230;2023-07-28T09:55:39;100051.72;;;20.95;100.00
37610;BME280;23457;51.966;8.230;2023-07-28T09:58:10;100065.09;;;20.90;100.00
37610;BME280;23457;51.966;8.230;2023-07-28T10:00:39;100058.34;;;21.06;100.00
37610;BME280;23457;51.966;8.230;2023-07-28T10:03:06;100051.56;;;20.76;100.00
37610;BME280;23457;51.966;8.230;2023-07-28T10:05:34;100054.66;;;20.87;100.00
37610;BME280;23457;51.966;8.230;2023-07-28T10:08:01;100058.97;;;21.13;100.00
37610;BME280;23457;51.966;8.230;2023-07-28T10:10:30;100062.84;;;21.28;100.00
37610;BME280;23457;51.966;8.230;2023-07-28T10:12:58;100061.78;;;21.08;100.00
37610;BME280;23457;51.966;8.230;2023-07-28T10:15:30;100064.59;;;21.04;100.00
37610;BME280;23457;51.966;8.230;2023-07-28T10:17:58;100066.25;;;21.06;100.00
37610;BME280;23457;51.966;8.230;2023-07-28T10:23:02;100064.31;;;21.12;100.00
37610;BME280;23457;51.966;8.230;2023-07-28T10:25:32;100072.00;;;21.18;100.00
37610;BME280;23457;51.966;8.230;2023-07-28T10:28:01;100068.69;;;20.89;100.00
37610;BME280;23457;51.966;8.230;2023-07-28T10:30:34;100075.38;;;21.23;100.00
37610;BME280;23457;51.966;8.230;2023-07-28T10:33:02;100079.44;;;21.31;100.00
37610;BME280;23457;51.966;8.230;2023-07-28T10:35:29;100085.13;;;21.21;100.00
37610;BME280;23457;51.966;8.230;2023-07-28T10:37:58;100069.81;;;21.05;100.00
37610;BME280;23457;51.966;8.230;2023-07-28T10:40:30;100081.75;;;21.16;100.00
37610;BME280;23457;51.966;8.230;2023-07-28T10:42:58;100074.56;;;21.21;100.00
37610;BME280;23457;51.966;8.230;2023-07-28T10:45:26;100081.69;;;21.19;100.00
37610;BME280;23457;51.966;8.230;2023-07-28T10:47:54;100080.78;;;21.18;100.00
37610;BME280;23457;51.966;8.230;2023-07-28T10:50:23;100081.56;;;21.45;100.00
37610;BME280;23457;51.966;8.230;2023-07-28T10:52:50;100078.22;;;21.63;100.00
37610;BME280;23457;51.966;8.230;2023-07-28T10:55:21;100067.75;;;21.60;100.00
37610;BME280;23457;51.966;8.230;2023-07-28T10:57:50;100072.22;;;21.80;100.00
37610;BME280;23457;51.966;8.230;2023-07-28T11:00:21;100064.34;;;22.02;100.00
37610;BME280;23457;51.966;8.230;2023-07-28T11:02:52;100071.66;;;22.37;100.00
37610;BME280;23457;51.966;8.230;2023-07-28T11:05:25;100071.13;;;22.49;100.00
37610;BME280;23457;51.966;8.230;2023-07-28T11:07:54;100067.69;;;22.47;100.00
37610;BME280;23457;51.966;8.230;2023-07-28T11:10:22;100068.38;;;22.52;100.00
37610;BME280;23457;51.966;8.230;2023-07-28T11:12:50;100066.25;;;22.40;100.00
37610;BME280;23457;51.966;8.230;2023-07-28T11:15:18;100074.19;;;22.61;100.00
37610;BME280;23457;51.966;8.230;2023-07-28T11:17:48;100061.66;;;22.84;100.00
37610;BME280;23457;51.966;8.230;2023-07-28T11:20:25;100059.06;;;23.03;100.00
37610;BME280;23457;51.966;8.230;2023-07-28T11:22:59;100054.19;;;23.32;100.00
37610;BME280;23457;51.966;8.230;2023-07-28T11:25:28;100051.84;;;23.26;100.00
37610;BME280;23457;51.966;8.230;2023-07-28T11:27:56;100063.19;;;22.90;100.00
37610;BME280;23457;51.966;8.230;2023-07-28T11:30:23;100068.25;;;22.76;100.00
37610;BME280;23457;51.966;8.230;2023-07-28T11:32:51;100059.22;;;22.80;100.00
37610;BME280;23457;51.966;8.230;2023-07-28T11:35:20;100065.13;;;22.86;100.00
37610;BME280;23457;51.966;8.230;2023-07-28T11:37:51;100066.69;;;22.70;100.00
37610;BME280;23457;51.966;8.230;2023-07-28T11:40:21;100080.75;;;22.52;100.00
37610;BME280;23457;51.966;8.230;2023-07-28T11:42:50;100077.06;;;22.55;100.00
37610;BME280;23457;51.966;8.230;2023-07-28T11:45:19;100080.06;;;22.67;100.00
37610;BME280;23457;51.966;8.230;2023-07-28T11:50:26;100080.53;;;22.36;100.00
37610;BME280;23457;51.966;8.230;2023-07-28T11:52:53;100083.50;;;22.49;100.00
37610;BME280;23457;51.966;8.230;2023-07-28T11:55:20;100080.66;;;22.33;100.00
37610;BME280;23457;51.966;8.230;2023-07-28T11:57:47;100084.88;;;22.58;100.00
37610;BME280;23457;51.966;8.230;2023-07-28T12:00:14;100085.28;;;22.69;100.00
37610;BME280;23457;51.966;8.230;2023-07-28T12:02:44;100090.19;;;22.98;100.00
37610;BME280;23457;51.966;8.230;2023-07-28T12:05:13;100081.34;;;23.37;100.00
37610;BME280;23457;51.966;8.230;2023-07-28T12:07:48;100078.66;;;23.76;100.00
37610;BME280;23457;51.966;8.230;2023-07-28T12:10:15;100075.50;;;24.04;100.00
37610;BME280;23457;51.966;8.230;2023-07-28T12:13:06;100072.78;;;24.05;100.00
37610;BME280;23457;51.966;8.230;2023-07-28T12:15:40;100071.81;;;24.25;100.00
37610;BME280;23457;51.966;8.230;2023-07-28T12:18:12;100072.56;;;24.79;100.00
37610;BME280;23457;51.966;8.230;2023-07-28T12:20:44;100067.22;;;24.96;96.98
37610;BME280;23457;51.966;8.230;2023-07-28T12:23:15;100075.31;;;24.77;92.51
37610;BME280;23457;51.966;8.230;2023-07-28T12:25:45;100071.34;;;23.98;96.58
37610;BME280;23457;51.966;8.230;2023-07-28T12:28:12;100068.53;;;24.54;92.32
37610;BME280;23457;51.966;8.230;2023-07-28T12:30:42;100061.66;;;24.50;93.29
37610;BME280;23457;51.966;8.230;2023-07-28T12:33:09;100061.22;;;24.75;96.37
37610;BME280;23457;51.966;8.230;2023-07-28T12:35:47;100062.22;;;25.23;91.64
37610;BME280;23457;51.966;8.230;2023-07-28T12:38:17;100065.16;;;25.50;92.44
37610;BME280;23457;51.966;8.230;2023-07-28T12:40:46;100056.91;;;26.01;91.92
37610;BME280;23457;51.966;8.230;2023-07-28T12:43:16;100062.31;;;25.70;86.97
37610;BME280;23457;51.966;8.230;2023-07-28T12:45:46;100059.00;;;25.49;88.61
37610;BME280;23457;51.966;8.230;2023-07-28T12:48:15;100054.88;;;25.44;91.36
37610;BME280;23457;51.966;8.230;2023-07-28T12:50:45;100048.47;;;25.79;92.05
37610;BME280;23457;51.966;8.230;2023-07-28T12:53:13;100054.22;;;26.17;86.38
37610;BME280;23457;51.966;8.230;2023-07-28T12:55:43;100049.19;;;26.27;88.66
37610;BME280;23457;51.966;8.230;2023-07-28T12:58:13;100047.13;;;26.62;89.09
37610;BME280;23457;51.966;8.230;2023-07-28T13:00:44;100043.69;;;26.74;81.64